sensor_id;sensor_type;location;lat;lon;timestamp;P1;durP1;ratioP1;P2;durP2;ratioP2
56599;SDS011;51832;48.152;11.530;2023-04-24T00:02:42;1.77;;;1.00;;
56599;SDS011;51832;48.152;11.530;2023-04-24T00:07:46;1.88;;;1.00;;
56599;SDS011;51832;48.152;11.530;2023-04-24T00:12:46;1.60;;;1.20;;
56599;SDS011;51832;48.152;11.530;2023-04-24T00:17:47;0.70;;;0.70;;
56599;SDS011;51832;48.152;11.530;2023-04-24T00:22:48;2.85;;;1.17;;
56599;SDS011;51832;48.152;11.530;2023-04-24T00:27:48;1.13;;;0.90;;
56599;SDS011;51832;48.152;11.530;2023-04-24T00:32:48;2.10;;;0.70;;
56599;SDS011;51832;48.152;11.530;2023-04-24T00:37:49;0.83;;;0.73;;
56599;SDS011;51832;48.152;11.530;2023-04-24T00:42:50;0.80;;;0.80;;
56599;SDS011;51832;48.152;11.530;2023-04-24T00:47:52;0.85;;;0.70;;
56599;SDS011;51832;48.152;11.530;2023-04-24T00:52:53;2.08;;;1.00;;
56599;SDS011;51832;48.152;11.530;2023-04-24T00:57:53;1.33;;;0.60;;
56599;SDS011;51832;48.152;11.530;2023-04-24T01:02:54;1.05;;;0.73;;
56599;SDS011;51832;48.152;11.530;2023-04-24T01:07:55;2.60;;;0.70;;
56599;SDS011;51832;48.152;11.530;2023-04-24T01:12:56;0.65;;;0.65;;
56599;SDS011;51832;48.152;11.530;2023-04-24T01:17:58;0.60;;;0.60;;
56599;SDS011;51832;48.152;11.530;2023-04-24T01:22:58;0.90;;;0.63;;
56599;SDS011;51832;48.152;11.530;2023-04-24T01:27:59;0.52;;;0.52;;
56599;SDS011;51832;48.152;11.530;2023-04-24T01:32:59;1.10;;;0.50;;
56599;SDS011;51832;48.152;11.530;2023-04-24T01:38:00;0.63;;;0.60;;
56599;SDS011;51832;48.152;11.530;2023-04-24T01:43:00;0.80;;;0.50;;
56599;SDS011;51832;48.152;11.530;2023-04-24T01:48:01;0.73;;;0.50;;
56599;SDS011;51832;48.152;11.530;2023-04-24T01:53:02;0.60;;;0.60;;
56599;SDS011;51832;48.152;11.530;2023-04-24T01:58:03;0.80;;;0.60;;
56599;SDS011;51832;48.152;11.530;2023-04-24T02:03:03;0.73;;;0.50;;
56599;SDS011;51832;48.152;11.530;2023-04-24T02:08:03;3.63;;;0.70;;
56599;SDS011;51832;48.152;11.530;2023-04-24T02:13:04;0.60;;;0.60;;
56599;SDS011;51832;48.152;11.530;2023-04-24T02:18:04;1.50;;;0.50;;
56599;SDS011;51832;48.152;11.530;2023-04-24T02:23:06;0.50;;;0.50;;
56599;SDS011;51832;48.152;11.530;2023-04-24T02:28:07;1.20;;;0.70;;
56599;SDS011;51832;48.152;11.530;2023-04-24T02:33:07;1.50;;;0.80;;
56599;SDS011;51832;48.152;11.530;2023-04-24T02:38:08;0.52;;;0.52;;
56599;SDS011;51832;48.152;11.530;2023-04-24T02:43:08;1.67;;;0.98;;
56599;SDS011;51832;48.152;11.530;2023-04-24T02:48:09;1.17;;;0.77;;
56599;SDS011;51832;48.152;11.530;2023-04-24T02:53:09;0.70;;;0.70;;
56599;SDS011;51832;48.152;11.530;2023-04-24T02:58:10;0.60;;;0.50;;
56599;SDS011;51832;48.152;11.530;2023-04-24T03:03:12;0.60;;;0.53;;
56599;SDS011;51832;48.152;11.530;2023-04-24T03:08:13;0.77;;;0.70;;
56599;SDS011;51832;48.152;11.530;2023-04-24T03:13:15;0.75;;;0.60;;
56599;SDS011;51832;48.152;11.530;2023-04-24T03:18:16;0.70;;;0.70;;
56599;SDS011;51832;48.152;11.530;2023-04-24T03:23:16;0.73;;;0.70;;
56599;SDS011;51832;48.152;11.530;2023-04-24T03:28:17;0.93;;;0.60;;
56599;SDS011;51832;48.152;11.530;2023-04-24T03:33:17;0.60;;;0.60;;
56599;SDS011;51832;48.152;11.530;2023-04-24T03:38:17;1.60;;;0.53;;
56599;SDS011;51832;48.152;11.530;2023-04-24T03:43:18;1.38;;;0.70;;
56599;SDS011;51832;48.152;11.530;2023-04-24T03:48:18;1.35;;;0.60;;
56599;SDS011;51832;48.152;11.530;2023-04-24T03:53:19;1.10;;;1.00;;
56599;SDS011;51832;48.152;11.530;2023-04-24T03:58:19;1.50;;;0.80;;
56599;SDS011;51832;48.152;11.530;2023-04-24T04:03:21;1.40;;;0.70;;
56599;SDS011;51832;48.152;11.530;2023-04-24T04:08:22;0.93;;;0.60;;
56599;SDS011;51832;48.152;11.530;2023-04-24T04:13:22;1.25;;;0.70;;
56599;SDS011;51832;48.152;11.530;2023-04-24T04:18:22;1.45;;;0.60;;
56599;SDS011;51832;48.152;11.530;2023-04-24T04:23:23;1.23;;;0.70;;
56599;SDS011;51832;48.152;11.530;2023-04-24T04:28:23;1.15;;;0.70;;
56599;SDS011;51832;48.152;11.530;2023-04-24T04:33:27;0.90;;;0.60;;
56599;SDS011;51832;48.152;11.530;2023-04-24T04:38:27;1.08;;;0.60;;
56599;SDS011;51832;48.152;11.530;2023-04-24T04:43:30;0.80;;;0.73;;
56599;SDS011;51832;48.152;11.530;2023-04-24T04:48:30;0.90;;;0.60;;
56599;SDS011;51832;48.152;11.530;2023-04-24T04:53:31;1.05;;;0.70;;
56599;SDS011;51832;48.152;11.530;2023-04-24T04:58:31;0.90;;;0.70;;
56599;SDS011;51832;48.152;11.530;2023-04-24T05:03:32;1.65;;;0.57;;
56599;SDS011;51832;48.152;11.530;2023-04-24T05:08:32;0.77;;;0.60;;
56599;SDS011;51832;48.152;11.530;2023-04-24T05:13:33;0.60;;;0.60;;
56599;SDS011;51832;48.152;11.530;2023-04-24T05:18:33;0.80;;;0.75;;
56599;SDS011;51832;48.152;11.530;2023-04-24T05:23:34;1.10;;;0.60;;
56599;SDS011;51832;48.152;11.530;2023-04-24T05:28:34;0.50;;;0.50;;
56599;SDS011;51832;48.152;11.530;2023-04-24T05:33:36;0.95;;;0.60;;
56599;SDS011;51832;48.152;11.530;2023-04-24T05:38:37;0.80;;;0.80;;
56599;SDS011;51832;48.152;11.530;2023-04-24T05:43:37;0.73;;;0.55;;
56599;SDS011;51832;48.152;11.530;2023-04-24T05:48:38;1.33;;;0.50;;
56599;SDS011;51832;48.152;11.530;2023-04-24T05:53:38;0.50;;;0.50;;
56599;SDS011;51832;48.152;11.530;2023-04-24T05:58:39;0.68;;;0.50;;
56599;SDS011;51832;48.152;11.530;2023-04-24T06:03:42;0.47;;;0.47;;
56599;SDS011;51832;48.152;11.530;2023-04-24T06:08:43;0.50;;;0.50;;
56599;SDS011;51832;48.152;11.530;2023-04-24T06:13:44;1.40;;;0.50;;
56599;SDS011;51832;48.152;11.530;2023-04-24T06:18:44;0.50;;;0.50;;
56599;SDS011;51832;48.152;11.530;2023-04-24T06:23:46;2.83;;;1.73;;
56599;SDS011;51832;48.152;11.530;2023-04-24T06:28:47;0.40;;;0.40;;
56599;SDS011;51832;48.152;11.530;2023-04-24T06:33:48;0.40;;;0.40;;
56599;SDS011;51832;48.152;11.530;2023-04-24T06:38:49;0.50;;;0.50;;
56599;SDS011;51832;48.152;11.530;2023-04-24T06:43:49;0.60;;;0.50;;
56599;SDS011;51832;48.152;11.530;2023-04-24T06:48:50;1.95;;;0.50;;
56599;SDS011;51832;48.152;11.530;2023-04-24T06:53:53;1.15;;;0.70;;
56599;SDS011;51832;48.152;11.530;2023-04-24T06:58:55;2.47;;;0.50;;
56599;SDS011;51832;48.152;11.530;2023-04-24T07:03:56;1.48;;;0.55;;
56599;SDS011;51832;48.152;11.530;2023-04-24T07:08:56;0.95;;;0.50;;
56599;SDS011;51832;48.152;11.530;2023-04-24T07:13:57;0.30;;;0.30;;
56599;SDS011;51832;48.152;11.530;2023-04-24T07:18:57;0.70;;;0.50;;
56599;SDS011;51832;48.152;11.530;2023-04-24T07:23:58;0.40;;;0.40;;
56599;SDS011;51832;48.152;11.530;2023-04-24T07:28:58;1.65;;;0.43;;
56599;SDS011;51832;48.152;11.530;2023-04-24T07:33:59;0.50;;;0.50;;
56599;SDS011;51832;48.152;11.530;2023-04-24T07:38:59;0.40;;;0.40;;
56599;SDS011;51832;48.152;11.530;2023-04-24T07:44:00;1.85;;;0.40;;
56599;SDS011;51832;48.152;11.530;2023-04-24T07:49:00;0.57;;;0.40;;
56599;SDS011;51832;48.152;11.530;2023-04-24T07:54:01;0.38;;;0.38;;
56599;SDS011;51832;48.152;11.530;2023-04-24T07:59:01;0.47;;;0.40;;
56599;SDS011;51832;48.152;11.530;2023-04-24T08:04:02;0.40;;;0.40;;
56599;SDS011;51832;48.152;11.530;2023-04-24T08:09:02;1.63;;;0.47;;
56599;SDS011;51832;48.152;11.530;2023-04-24T08:14:03;0.30;;;0.30;;
56599;SDS011;51832;48.152;11.530;2023-04-24T08:19:03;0.95;;;0.50;;
56599;SDS011;51832;48.152;11.530;2023-04-24T08:24:04;0.55;;;0.50;;
56599;SDS011;51832;48.152;11.530;2023-04-24T08:29:07;1.08;;;0.50;;
56599;SDS011;51832;48.152;11.530;2023-04-24T08:34:08;1.48;;;0.50;;
56599;SDS011;51832;48.152;11.530;2023-04-24T08:39:10;0.50;;;0.50;;
56599;SDS011;51832;48.152;11.530;2023-04-24T08:44:11;0.63;;;0.60;;
56599;SDS011;51832;48.152;11.530;2023-04-24T08:49:16;1.13;;;0.90;;
56599;SDS011;51832;48.152;11.530;2023-04-24T08:54:17;1.05;;;0.90;;
56599;SDS011;51832;48.152;11.530;2023-04-24T08:59:18;1.55;;;1.10;;
56599;SDS011;51832;48.152;11.530;2023-04-24T09:04:21;2.57;;;1.20;;
56599;SDS011;51832;48.152;11.530;2023-04-24T09:09:24;1.25;;;0.80;;
56599;SDS011;51832;48.152;11.530;2023-04-24T09:14:25;2.08;;;1.00;;
56599;SDS011;51832;48.152;11.530;2023-04-24T09:19:26;1.63;;;0.90;;
56599;SDS011;51832;48.152;11.530;2023-04-24T09:24:26;1.67;;;0.98;;
56599;SDS011;51832;48.152;11.530;2023-04-24T09:29:27;0.98;;;0.90;;
56599;SDS011;51832;48.152;11.530;2023-04-24T09:34:28;1.30;;;1.05;;
56599;SDS011;51832;48.152;11.530;2023-04-24T09:39:28;1.95;;;1.20;;
56599;SDS011;51832;48.152;11.530;2023-04-24T09:44:29;1.30;;;1.20;;
56599;SDS011;51832;48.152;11.530;2023-04-24T09:49:30;2.00;;;1.08;;
56599;SDS011;51832;48.152;11.530;2023-04-24T09:54:33;1.30;;;1.20;;
56599;SDS011;51832;48.152;11.530;2023-04-24T09:59:34;3.15;;;1.55;;
56599;SDS011;51832;48.152;11.530;2023-04-24T10:04:34;1.98;;;1.55;;
56599;SDS011;51832;48.152;11.530;2023-04-24T10:09:35;2.05;;;1.40;;
56599;SDS011;51832;48.152;11.530;2023-04-24T10:14:36;1.58;;;1.30;;
56599;SDS011;51832;48.152;11.530;2023-04-24T10:19:36;1.30;;;1.20;;
56599;SDS011;51832;48.152;11.530;2023-04-24T10:24:37;1.58;;;1.40;;
56599;SDS011;51832;48.152;11.530;2023-04-24T10:29:38;1.30;;;1.20;;
56599;SDS011;51832;48.152;11.530;2023-04-24T10:34:40;1.50;;;1.20;;
56599;SDS011;51832;48.152;11.530;2023-04-24T10:39:40;2.30;;;1.20;;
56599;SDS011;51832;48.152;11.530;2023-04-24T10:44:41;1.88;;;1.25;;
56599;SDS011;51832;48.152;11.530;2023-04-24T10:49:41;1.25;;;1.10;;
56599;SDS011;51832;48.152;11.530;2023-04-24T10:54:45;1.55;;;1.08;;
56599;SDS011;51832;48.152;11.530;2023-04-24T10:59:48;2.22;;;0.95;;
56599;SDS011;51832;48.152;11.530;2023-04-24T11:04:49;5.90;;;1.38;;
56599;SDS011;51832;48.152;11.530;2023-04-24T11:09:57;0.77;;;0.68;;
56599;SDS011;51832;48.152;11.530;2023-04-24T11:15:01;0.90;;;0.55;;
56599;SDS011;51832;48.152;11.530;2023-04-24T11:20:11;0.70;;;0.70;;
56599;SDS011;51832;48.152;11.530;2023-04-24T11:25:16;1.50;;;0.95;;
56599;SDS011;51832;48.152;11.530;2023-04-24T11:30:20;1.50;;;1.40;;
56599;SDS011;51832;48.152;11.530;2023-04-24T11:35:21;2.38;;;1.13;;
56599;SDS011;51832;48.152;11.530;2023-04-24T11:40:27;1.77;;;0.95;;
56599;SDS011;51832;48.152;11.530;2023-04-24T11:45:29;2.27;;;0.93;;
56599;SDS011;51832;48.152;11.530;2023-04-24T11:50:30;1.48;;;1.30;;
56599;SDS011;51832;48.152;11.530;2023-04-24T11:55:31;2.80;;;1.38;;
56599;SDS011;51832;48.152;11.530;2023-04-24T12:00:32;2.15;;;1.00;;
56599;SDS011;51832;48.152;11.530;2023-04-24T12:05:35;3.25;;;1.25;;
56599;SDS011;51832;48.152;11.530;2023-04-24T12:10:36;1.30;;;1.10;;
56599;SDS011;51832;48.152;11.530;2023-04-24T12:15:39;1.08;;;0.98;;
56599;SDS011;51832;48.152;11.530;2023-04-24T12:20:40;1.35;;;1.00;;
56599;SDS011;51832;48.152;11.530;2023-04-24T12:25:40;1.13;;;1.02;;
56599;SDS011;51832;48.152;11.530;2023-04-24T12:30:42;1.38;;;1.20;;
56599;SDS011;51832;48.152;11.530;2023-04-24T12:35:44;1.92;;;1.27;;
56599;SDS011;51832;48.152;11.530;2023-04-24T12:40:45;1.35;;;1.02;;
56599;SDS011;51832;48.152;11.530;2023-04-24T12:45:47;1.75;;;1.27;;
56599;SDS011;51832;48.152;11.530;2023-04-24T12:50:48;1.20;;;1.00;;
56599;SDS011;51832;48.152;11.530;2023-04-24T12:55:48;1.10;;;0.90;;
56599;SDS011;51832;48.152;11.530;2023-04-24T13:00:52;1.40;;;1.17;;
56599;SDS011;51832;48.152;11.530;2023-04-24T13:05:52;1.45;;;1.02;;
56599;SDS011;51832;48.152;11.530;2023-04-24T13:10:53;2.20;;;1.42;;
56599;SDS011;51832;48.152;11.530;2023-04-24T13:15:54;1.83;;;1.30;;
56599;SDS011;51832;48.152;11.530;2023-04-24T13:20:54;2.60;;;1.25;;
56599;SDS011;51832;48.152;11.530;2023-04-24T13:25:55;2.03;;;1.25;;
56599;SDS011;51832;48.152;11.530;2023-04-24T13:30:58;2.13;;;1.30;;
56599;SDS011;51832;48.152;11.530;2023-04-24T13:35:58;2.67;;;1.50;;
56599;SDS011;51832;48.152;11.530;2023-04-24T13:41:00;1.40;;;1.30;;
56599;SDS011;51832;48.152;11.530;2023-04-24T13:46:00;1.90;;;1.30;;
56599;SDS011;51832;48.152;11.530;2023-04-24T13:51:02;3.38;;;1.40;;
56599;SDS011;51832;48.152;11.530;2023-04-24T13:56:03;1.90;;;1.05;;
56599;SDS011;51832;48.152;11.530;2023-04-24T14:01:04;2.78;;;1.10;;
56599;SDS011;51832;48.152;11.530;2023-04-24T14:06:04;1.25;;;1.13;;
56599;SDS011;51832;48.152;11.530;2023-04-24T14:11:06;1.95;;;1.40;;
56599;SDS011;51832;48.152;11.530;2023-04-24T14:16:07;3.30;;;1.45;;
56599;SDS011;51832;48.152;11.530;2023-04-24T14:21:08;2.00;;;1.35;;
56599;SDS011;51832;48.152;11.530;2023-04-24T14:26:08;2.90;;;1.80;;
56599;SDS011;51832;48.152;11.530;2023-04-24T14:31:08;20.52;;;1.83;;
56599;SDS011;51832;48.152;11.530;2023-04-24T14:36:09;1.60;;;1.30;;
56599;SDS011;51832;48.152;11.530;2023-04-24T14:41:10;2.30;;;1.40;;
56599;SDS011;51832;48.152;11.530;2023-04-24T14:46:11;1.90;;;1.20;;
56599;SDS011;51832;48.152;11.530;2023-04-24T14:51:12;1.88;;;1.40;;
56599;SDS011;51832;48.152;11.530;2023-04-24T14:56:12;2.17;;;1.30;;
56599;SDS011;51832;48.152;11.530;2023-04-24T15:01:13;4.88;;;1.45;;
56599;SDS011;51832;48.152;11.530;2023-04-24T15:06:13;1.80;;;1.50;;
56599;SDS011;51832;48.152;11.530;2023-04-24T15:11:14;2.03;;;1.40;;
56599;SDS011;51832;48.152;11.530;2023-04-24T15:16:14;2.03;;;1.20;;
56599;SDS011;51832;48.152;11.530;2023-04-24T15:21:15;1.50;;;1.40;;
56599;SDS011;51832;48.152;11.530;2023-04-24T15:26:15;1.75;;;1.33;;
56599;SDS011;51832;48.152;11.530;2023-04-24T15:31:16;1.30;;;1.20;;
56599;SDS011;51832;48.152;11.530;2023-04-24T15:36:17;2.63;;;1.30;;
56599;SDS011;51832;48.152;11.530;2023-04-24T15:41:18;1.15;;;1.00;;
56599;SDS011;51832;48.152;11.530;2023-04-24T15:46:18;2.58;;;1.27;;
56599;SDS011;51832;48.152;11.530;2023-04-24T15:51:19;2.72;;;1.10;;
56599;SDS011;51832;48.152;11.530;2023-04-24T15:56:19;1.10;;;1.00;;
56599;SDS011;51832;48.152;11.530;2023-04-24T16:01:20;2.00;;;1.00;;
56599;SDS011;51832;48.152;11.530;2023-04-24T16:06:20;2.70;;;1.25;;
56599;SDS011;51832;48.152;11.530;2023-04-24T16:11:21;1.95;;;1.20;;
56599;SDS011;51832;48.152;11.530;2023-04-24T16:16:22;1.60;;;1.00;;
56599;SDS011;51832;48.152;11.530;2023-04-24T16:21:23;2.40;;;1.10;;
56599;SDS011;51832;48.152;11.530;2023-04-24T16:26:23;1.93;;;1.00;;
56599;SDS011;51832;48.152;11.530;2023-04-24T16:31:24;1.35;;;0.90;;
56599;SDS011;51832;48.152;11.530;2023-04-24T16:36:25;1.25;;;0.80;;
56599;SDS011;51832;48.152;11.530;2023-04-24T16:41:27;1.33;;;0.80;;
56599;SDS011;51832;48.152;11.530;2023-04-24T16:46:27;1.60;;;0.90;;
56599;SDS011;51832;48.152;11.530;2023-04-24T16:51:28;1.35;;;0.90;;
56599;SDS011;51832;48.152;11.530;2023-04-24T16:56:28;2.30;;;1.07;;
56599;SDS011;51832;48.152;11.530;2023-04-24T17:01:29;1.50;;;1.08;;
56599;SDS011;51832;48.152;11.530;2023-04-24T17:06:29;1.10;;;0.90;;
56599;SDS011;51832;48.152;11.530;2023-04-24T17:11:30;0.88;;;0.80;;
56599;SDS011;51832;48.152;11.530;2023-04-24T17:16:30;1.73;;;0.90;;
56599;SDS011;51832;48.152;11.530;2023-04-24T17:21:31;0.93;;;0.90;;
56599;SDS011;51832;48.152;11.530;2023-04-24T17:26:32;2.95;;;1.20;;
56599;SDS011;51832;48.152;11.530;2023-04-24T17:31:33;1.73;;;0.82;;
56599;SDS011;51832;48.152;11.530;2023-04-24T17:36:33;1.13;;;1.00;;
56599;SDS011;51832;48.152;11.530;2023-04-24T17:41:34;0.90;;;0.90;;
56599;SDS011;51832;48.152;11.530;2023-04-24T17:46:34;1.02;;;0.82;;
56599;SDS011;51832;48.152;11.530;2023-04-24T17:51:34;1.52;;;1.05;;
56599;SDS011;51832;48.152;11.530;2023-04-24T17:56:35;1.20;;;1.10;;
56599;SDS011;51832;48.152;11.530;2023-04-24T18:01:36;1.85;;;0.90;;
56599;SDS011;51832;48.152;11.530;2023-04-24T18:06:36;1.25;;;1.15;;
56599;SDS011;51832;48.152;11.530;2023-04-24T18:11:38;1.80;;;1.10;;
56599;SDS011;51832;48.152;11.530;2023-04-24T18:16:38;1.23;;;1.13;;
56599;SDS011;51832;48.152;11.530;2023-04-24T18:21:39;1.33;;;1.02;;
56599;SDS011;51832;48.152;11.530;2023-04-24T18:26:39;1.50;;;1.17;;
56599;SDS011;51832;48.152;11.530;2023-04-24T18:31:40;3.38;;;1.40;;
56599;SDS011;51832;48.152;11.530;2023-04-24T18:36:40;2.13;;;1.30;;
56599;SDS011;51832;48.152;11.530;2023-04-24T18:41:41;1.75;;;1.30;;
56599;SDS011;51832;48.152;11.530;2023-04-24T18:46:41;1.45;;;1.30;;
56599;SDS011;51832;48.152;11.530;2023-04-24T18:51:41;1.20;;;1.10;;
56599;SDS011;51832;48.152;11.530;2023-04-24T18:56:42;2.28;;;1.42;;
56599;SDS011;51832;48.152;11.530;2023-04-24T19:01:42;1.87;;;1.30;;
56599;SDS011;51832;48.152;11.530;2023-04-24T19:06:43;1.73;;;1.48;;
56599;SDS011;51832;48.152;11.530;2023-04-24T19:11:43;2.60;;;1.40;;
56599;SDS011;51832;48.152;11.530;2023-04-24T19:16:44;3.17;;;1.60;;
56599;SDS011;51832;48.152;11.530;2023-04-24T19:21:46;1.87;;;1.50;;
56599;SDS011;51832;48.152;11.530;2023-04-24T19:26:49;2.30;;;1.35;;
56599;SDS011;51832;48.152;11.530;2023-04-24T19:31:49;1.60;;;1.50;;
56599;SDS011;51832;48.152;11.530;2023-04-24T19:36:49;2.63;;;1.30;;
56599;SDS011;51832;48.152;11.530;2023-04-24T19:41:50;1.75;;;1.38;;
56599;SDS011;51832;48.152;11.530;2023-04-24T19:46:50;1.73;;;1.35;;
56599;SDS011;51832;48.152;11.530;2023-04-24T19:51:51;1.70;;;1.45;;
56599;SDS011;51832;48.152;11.530;2023-04-24T19:56:51;2.10;;;1.75;;
56599;SDS011;51832;48.152;11.530;2023-04-24T20:01:52;2.05;;;1.60;;
56599;SDS011;51832;48.152;11.530;2023-04-24T20:06:53;2.55;;;1.67;;
56599;SDS011;51832;48.152;11.530;2023-04-24T20:11:54;2.20;;;1.70;;
56599;SDS011;51832;48.152;11.530;2023-04-24T20:16:56;2.67;;;1.42;;
56599;SDS011;51832;48.152;11.530;2023-04-24T20:21:56;3.00;;;1.77;;
56599;SDS011;51832;48.152;11.530;2023-04-24T20:26:56;1.60;;;1.40;;
56599;SDS011;51832;48.152;11.530;2023-04-24T20:31:57;2.30;;;1.80;;
56599;SDS011;51832;48.152;11.530;2023-04-24T20:36:58;2.15;;;1.80;;
56599;SDS011;51832;48.152;11.530;2023-04-24T20:41:58;1.95;;;1.70;;
56599;SDS011;51832;48.152;11.530;2023-04-24T20:46:59;2.95;;;1.98;;
56599;SDS011;51832;48.152;11.530;2023-04-24T20:51:59;2.53;;;1.40;;
56599;SDS011;51832;48.152;11.530;2023-04-24T20:57:00;2.13;;;1.45;;
56599;SDS011;51832;48.152;11.530;2023-04-24T21:02:00;2.00;;;1.80;;
56599;SDS011;51832;48.152;11.530;2023-04-24T21:07:01;2.55;;;1.90;;
56599;SDS011;51832;48.152;11.530;2023-04-24T21:12:01;2.40;;;1.85;;
56599;SDS011;51832;48.152;11.530;2023-04-24T21:17:02;3.55;;;2.05;;
56599;SDS011;51832;48.152;11.530;2023-04-24T21:22:02;2.92;;;2.10;;
56599;SDS011;51832;48.152;11.530;2023-04-24T21:27:03;2.00;;;1.90;;
56599;SDS011;51832;48.152;11.530;2023-04-24T21:32:03;2.28;;;1.85;;
56599;SDS011;51832;48.152;11.530;2023-04-24T21:37:04;2.90;;;1.98;;
56599;SDS011;51832;48.152;11.530;2023-04-24T21:42:04;3.22;;;2.22;;
56599;SDS011;51832;48.152;11.530;2023-04-24T21:47:05;3.20;;;1.90;;
56599;SDS011;51832;48.152;11.530;2023-04-24T21:52:05;2.25;;;1.90;;
56599;SDS011;51832;48.152;11.530;2023-04-24T21:57:06;2.13;;;1.70;;
56599;SDS011;51832;48.152;11.530;2023-04-24T22:02:07;1.98;;;1.77;;
56599;SDS011;51832;48.152;11.530;2023-04-24T22:07:07;1.75;;;1.63;;
56599;SDS011;51832;48.152;11.530;2023-04-24T22:12:08;2.35;;;1.80;;
56599;SDS011;51832;48.152;11.530;2023-04-24T22:17:09;3.35;;;1.90;;
56599;SDS011;51832;48.152;11.530;2023-04-24T22:22:09;2.25;;;1.73;;
56599;SDS011;51832;48.152;11.530;2023-04-24T22:27:10;2.75;;;1.80;;
56599;SDS011;51832;48.152;11.530;2023-04-24T22:32:10;2.85;;;1.83;;
56599;SDS011;51832;48.152;11.530;2023-04-24T22:37:10;3.15;;;1.92;;
56599;SDS011;51832;48.152;11.530;2023-04-24T22:42:11;2.10;;;1.90;;
56599;SDS011;51832;48.152;11.530;2023-04-24T22:47:11;2.53;;;1.75;;
56599;SDS011;51832;48.152;11.530;2023-04-24T22:52:12;2.78;;;1.85;;
56599;SDS011;51832;48.152;11.530;2023-04-24T22:57:13;3.28;;;1.85;;
56599;SDS011;51832;48.152;11.530;2023-04-24T23:02:14;2.15;;;1.88;;
56599;SDS011;51832;48.152;11.530;2023-04-24T23:07:15;2.60;;;1.80;;
56599;SDS011;51832;48.152;11.530;2023-04-24T23:12:16;2.10;;;1.80;;
56599;SDS011;51832;48.152;11.530;2023-04-24T23:17:16;2.05;;;1.90;;
56599;SDS011;51832;48.152;11.530;2023-04-24T23:22:17;2.67;;;2.20;;
56599;SDS011;51832;48.152;11.530;2023-04-24T23:27:18;4.35;;;2.40;;
56599;SDS011;51832;48.152;11.530;2023-04-24T23:32:18;2.87;;;2.20;;
56599;SDS011;51832;48.152;11.530;2023-04-24T23:37:18;2.70;;;2.30;;
56599;SDS011;51832;48.152;11.530;2023-04-24T23:42:19;2.65;;;1.98;;
56599;SDS011;51832;48.152;11.530;2023-04-24T23:47:20;2.65;;;1.98;;
56599;SDS011;51832;48.152;11.530;2023-04-24T23:52:20;3.72;;;2.42;;
56599;SDS011;51832;48.152;11.530;2023-04-24T23:57:21;2.10;;;1.90;;
